createdAt,value
2023-04-16T00:03:28.344Z,99715.91
2023-04-16T00:13:03.253Z,99720.17
2023-04-16T00:22:36.014Z,99718.91
2023-04-16T00:32:09.888Z,99722.10
2023-04-16T00:41:45.385Z,99720.16
2023-04-16T00:51:17.371Z,99737.02
2023-04-16T01:00:52.520Z,99741.52
2023-04-16T01:10:24.704Z,99732.09
2023-04-16T01:11:28.689Z,99736.58
2023-04-16T01:21:00.437Z,99746.86
2023-04-16T01:30:33.583Z,99743.07
2023-04-16T01:40:07.367Z,99750.66
2023-04-16T01:49:40.882Z,99747.20
2023-04-16T01:59:16.482Z,99742.02
2023-04-16T02:08:50.049Z,99742.30
2023-04-16T02:18:23.679Z,99747.56
2023-04-16T02:27:55.827Z,99765.02
2023-04-16T02:37:31.579Z,99767.05
2023-04-16T02:47:03.633Z,99776.73
2023-04-16T02:56:37.693Z,99767.41
2023-04-16T03:06:13.316Z,99772.25
2023-04-16T03:15:45.530Z,99776.80
2023-04-16T03:25:20.784Z,99770.75
2023-04-16T03:34:52.851Z,99781.02
2023-04-16T03:44:26.809Z,99780.47
2023-04-16T03:54:00.931Z,99780.02
2023-04-16T04:03:34.940Z,99790.67
2023-04-16T04:13:10.016Z,99795.52
2023-04-16T04:22:44.329Z,99795.23
2023-04-16T04:32:18.281Z,99805.37
2023-04-16T04:41:50.186Z,99807.91
2023-04-16T04:51:25.775Z,99809.95
2023-04-16T05:00:57.859Z,99813.23
2023-04-16T05:10:33.184Z,99837.95
2023-04-16T05:20:06.896Z,99846.72
2023-04-16T05:29:40.577Z,99854.62
2023-04-16T05:39:13.155Z,99862.71
2023-04-16T05:48:47.141Z,99870.38
2023-04-16T05:58:21.453Z,99882.22
2023-04-16T06:07:55.270Z,99886.86
2023-04-16T06:17:30.950Z,99889.70
2023-04-16T06:27:03.536Z,99895.67
2023-04-16T06:36:39.431Z,99890.81
2023-04-16T06:46:11.916Z,99900.30
2023-04-16T06:55:46.385Z,99902.19
2023-04-16T07:05:22.138Z,99900.52
2023-04-16T07:14:54.793Z,99906.87
2023-04-16T07:24:30.442Z,99908.08
2023-04-16T07:34:04.453Z,99917.44
2023-04-16T07:43:36.761Z,99922.84
2023-04-16T07:44:40.773Z,99919.87
2023-04-16T07:45:44.755Z,99919.39
2023-04-16T07:46:47.756Z,99930.10
2023-04-16T07:47:51.104Z,99919.69
2023-04-16T07:48:54.998Z,99926.66
2023-04-16T07:58:25.455Z,99937.92
2023-04-16T07:59:28.076Z,99932.52
2023-04-16T08:00:32.044Z,99932.42
2023-04-16T08:01:34.291Z,99934.16
2023-04-16T08:02:38.420Z,99930.20
2023-04-16T08:03:42.319Z,99933.64
2023-04-16T08:13:12.468Z,99947.81
2023-04-16T08:14:16.515Z,99947.80
2023-04-16T08:15:18.824Z,99952.55
2023-04-16T08:16:21.326Z,99952.36
2023-04-16T08:17:23.757Z,99943.28
2023-04-16T08:18:27.708Z,99945.19
2023-04-16T08:19:30.030Z,99947.97
2023-04-16T08:20:32.441Z,99946.22
2023-04-16T08:21:36.497Z,99949.86
2023-04-16T08:22:38.771Z,99951.67
2023-04-16T08:23:41.204Z,99949.73
2023-04-16T08:24:43.630Z,99950.99
2023-04-16T08:25:47.634Z,99951.83
2023-04-16T08:26:51.540Z,99953.04
2023-04-16T08:27:53.868Z,99962.94
2023-04-16T08:28:56.272Z,99965.76
2023-04-16T08:30:00.317Z,99961.74
2023-04-16T08:31:04.187Z,99960.39
2023-04-16T08:40:35.824Z,99971.20
2023-04-16T08:41:39.763Z,99973.60
2023-04-16T08:42:43.735Z,99964.63
2023-04-16T08:43:47.653Z,99967.27
2023-04-16T08:44:49.978Z,99972.95
2023-04-16T08:45:52.192Z,99976.58
2023-04-16T08:46:54.715Z,99972.73
2023-04-16T08:47:58.673Z,99969.59
2023-04-16T08:49:00.947Z,99972.81
2023-04-16T08:50:04.965Z,99976.16
2023-04-16T08:51:07.236Z,99975.98
2023-04-16T08:52:11.313Z,99977.88
2023-04-16T08:53:13.601Z,99976.16
2023-04-16T08:54:16.039Z,99977.58
2023-04-16T08:55:18.455Z,99983.75
2023-04-16T08:56:20.925Z,99979.22
2023-04-16T08:57:24.923Z,99981.12
2023-04-16T08:58:27.221Z,99988.47
2023-04-16T08:59:29.638Z,99982.19
2023-04-16T09:00:32.073Z,99980.83
2023-04-16T09:01:34.462Z,99982.56
2023-04-16T09:02:38.654Z,99989.31
2023-04-16T09:03:40.871Z,99990.05
2023-04-16T09:04:43.338Z,99982.63
2023-04-16T09:05:47.249Z,99982.09
2023-04-16T09:06:49.524Z,99984.13
2023-04-16T09:07:51.985Z,99986.45
2023-04-16T09:08:54.393Z,99991.31
2023-04-16T09:09:58.480Z,99985.89
2023-04-16T09:11:02.345Z,99987.37
2023-04-16T09:20:32.603Z,99993.41
2023-04-16T09:21:35.033Z,99992.30
2023-04-16T09:22:37.487Z,99995.16
2023-04-16T09:23:41.570Z,99988.84
2023-04-16T09:24:43.907Z,99999.40
2023-04-16T09:25:46.340Z,99997.92
2023-04-16T09:26:48.794Z,100001.05
2023-04-16T09:27:52.816Z,99996.80
2023-04-16T09:28:56.773Z,99998.97
2023-04-16T09:29:58.992Z,99999.97
2023-04-16T09:31:03.190Z,100001.42
2023-04-16T09:32:07.330Z,100002.82
2023-04-16T09:33:11.176Z,100001.22
2023-04-16T09:34:15.086Z,100003.11
2023-04-16T09:35:17.368Z,100008.82
2023-04-16T09:36:21.449Z,100004.09
2023-04-16T09:37:23.715Z,100011.16
2023-04-16T09:38:26.173Z,100008.55
2023-04-16T09:39:30.184Z,100008.84
2023-04-16T09:40:34.055Z,100007.13
2023-04-16T09:41:36.385Z,100005.69
2023-04-16T09:42:40.401Z,100009.20
2023-04-16T09:43:44.310Z,100009.52
2023-04-16T09:44:48.228Z,100008.89
2023-04-16T09:45:50.555Z,100007.79
2023-04-16T09:46:54.548Z,100007.59
2023-04-16T09:47:56.904Z,100010.63
2023-04-16T09:49:00.866Z,100010.28
2023-04-16T09:50:03.216Z,100012.57
2023-04-16T09:51:05.705Z,100012.03
2023-04-16T09:52:08.091Z,100013.94
2023-04-16T09:53:10.498Z,100013.20
2023-04-16T09:54:13.034Z,100013.70
2023-04-16T09:55:17.048Z,100010.60
2023-04-16T09:56:21.090Z,100013.55
2023-04-16T09:57:24.950Z,100018.63
2023-04-16T09:58:28.835Z,100014.52
2023-04-16T09:59:31.201Z,100020.23
2023-04-16T10:00:33.619Z,100019.63
2023-04-16T10:01:36.108Z,100022.27
2023-04-16T10:02:38.646Z,100021.02
2023-04-16T10:03:41.091Z,100022.11
2023-04-16T10:04:45.213Z,100024.52
2023-04-16T10:05:47.489Z,100030.67
2023-04-16T10:06:50.034Z,100022.44
2023-04-16T10:07:53.995Z,100023.39
2023-04-16T10:08:57.882Z,100023.22
2023-04-16T10:10:01.791Z,100022.75
2023-04-16T10:11:04.207Z,100029.54
2023-04-16T10:12:08.239Z,100025.63
2023-04-16T10:13:10.521Z,100029.33
2023-04-16T10:14:12.955Z,100035.92
2023-04-16T10:15:16.927Z,100034.30
2023-04-16T10:16:20.839Z,100035.19
2023-04-16T10:17:23.141Z,100036.70
2023-04-16T10:18:27.183Z,100036.02
2023-04-16T10:19:29.413Z,100036.50
2023-04-16T10:20:33.501Z,100036.42
2023-04-16T10:21:37.382Z,100036.88
2023-04-16T10:22:39.744Z,100042.24
2023-04-16T10:23:43.764Z,100040.76
2023-04-16T10:24:47.709Z,100039.05
2023-04-16T10:25:51.645Z,100041.75
2023-04-16T10:26:53.909Z,100041.80
2023-04-16T10:27:56.384Z,100043.30
2023-04-16T10:29:00.417Z,100037.22
2023-04-16T10:30:04.370Z,100043.88
2023-04-16T10:31:08.389Z,100043.80
2023-04-16T10:32:12.161Z,100043.11
2023-04-16T10:33:14.475Z,100041.73
2023-04-16T10:34:18.524Z,100039.36
2023-04-16T10:35:20.846Z,100045.27
2023-04-16T10:36:23.251Z,100048.88
2023-04-16T10:37:27.257Z,100045.59
2023-04-16T10:38:29.633Z,100049.52
2023-04-16T10:39:32.066Z,100049.36
2023-04-16T10:40:36.109Z,100045.27
2023-04-16T10:41:38.540Z,100053.45
2023-04-16T10:42:42.588Z,100049.19
2023-04-16T10:43:44.873Z,100047.09
2023-04-16T10:44:47.293Z,100055.09
2023-04-16T10:45:49.736Z,100044.92
2023-04-16T10:46:52.146Z,100047.31
2023-04-16T10:47:54.651Z,100051.28
2023-04-16T10:48:57.102Z,100051.05
2023-04-16T10:50:01.088Z,100050.52
2023-04-16T10:51:05.256Z,100048.02
2023-04-16T10:52:07.526Z,100046.05
2023-04-16T10:53:11.574Z,100049.80
2023-04-16T10:54:15.418Z,100050.26
2023-04-16T10:55:17.722Z,100048.40
2023-04-16T10:56:21.776Z,100048.17
2023-04-16T10:57:25.618Z,100047.36
2023-04-16T10:58:29.582Z,100040.40
2023-04-16T10:59:31.871Z,100041.50
2023-04-16T11:00:35.897Z,100043.81
2023-04-16T11:01:39.953Z,100042.22
2023-04-16T11:02:42.257Z,100043.34
2023-04-16T11:03:44.696Z,100044.63
2023-04-16T11:04:47.254Z,100047.67
2023-04-16T11:05:51.219Z,100042.73
2023-04-16T11:06:53.490Z,100045.97
2023-04-16T11:07:57.540Z,100043.75
2023-04-16T11:08:59.853Z,100049.48
2023-04-16T11:10:03.908Z,100048.02
2023-04-16T11:11:06.193Z,100051.80
2023-04-16T11:12:08.700Z,100048.52
2023-04-16T11:13:11.136Z,100047.88
2023-04-16T11:14:15.202Z,100051.32
2023-04-16T11:15:17.546Z,100048.01
2023-04-16T11:16:20.065Z,100048.01
2023-04-16T11:17:24.041Z,100049.13
2023-04-16T11:18:28.027Z,100047.81
2023-04-16T11:19:30.345Z,100047.00
2023-04-16T11:20:34.429Z,100048.59
2023-04-16T11:21:36.642Z,100047.22
2023-04-16T11:22:40.724Z,100047.65
2023-04-16T11:23:44.531Z,100047.11
2023-04-16T11:24:48.419Z,100055.73
2023-04-16T11:25:52.220Z,100051.26
2023-04-16T11:26:54.522Z,100053.67
2023-04-16T11:27:58.606Z,100056.05
2023-04-16T11:29:00.914Z,100056.73
2023-04-16T11:30:03.261Z,100051.83
2023-04-16T11:31:07.277Z,100055.03
2023-04-16T11:32:11.220Z,100054.73
2023-04-16T11:33:13.475Z,100048.55
2023-04-16T11:34:17.471Z,100054.44
2023-04-16T11:35:21.331Z,100053.45
2023-04-16T11:36:25.510Z,100055.47
2023-04-16T11:37:26.090Z,100055.00
2023-04-16T11:38:30.075Z,100053.86
2023-04-16T11:39:32.387Z,100057.38
2023-04-16T11:40:36.438Z,100052.67
2023-04-16T11:41:38.675Z,100055.91
2023-04-16T11:42:42.794Z,100054.25
2023-04-16T11:43:44.997Z,100054.81
2023-04-16T11:44:49.041Z,100054.17
2023-04-16T11:45:51.474Z,100057.09
2023-04-16T11:46:54.798Z,100060.74
2023-04-16T11:47:57.076Z,100061.58
2023-04-16T11:48:59.465Z,100056.01
2023-04-16T11:50:01.860Z,100053.95
2023-04-16T11:51:04.254Z,100056.80
2023-04-16T11:52:06.701Z,100061.92
2023-04-16T11:53:09.205Z,100056.20
2023-04-16T11:54:12.133Z,100057.51
2023-04-16T11:55:15.592Z,100064.46
2023-04-16T11:56:17.918Z,100058.52
2023-04-16T11:57:20.382Z,100060.45
2023-04-16T11:58:24.350Z,100055.91
2023-04-16T11:59:26.756Z,100059.34
2023-04-16T12:00:30.693Z,100060.89
2023-04-16T12:01:33.037Z,100056.33
2023-04-16T12:02:37.572Z,100062.50
2023-04-16T12:03:41.528Z,100057.27
2023-04-16T12:04:43.670Z,100060.17
2023-04-16T12:05:47.662Z,100059.67
2023-04-16T12:06:49.966Z,100060.08
2023-04-16T12:07:54.025Z,100057.20
2023-04-16T12:08:56.362Z,100060.55
2023-04-16T12:09:58.747Z,100059.06
2023-04-16T12:11:01.174Z,100058.42
2023-04-16T12:12:03.599Z,100062.02
2023-04-16T12:13:06.082Z,100056.20
2023-04-16T12:14:08.520Z,100061.94
2023-04-16T12:15:11.046Z,100062.92
2023-04-16T12:16:13.480Z,100062.22
2023-04-16T12:17:17.697Z,100065.29
2023-04-16T12:18:21.597Z,100052.70
2023-04-16T12:19:25.501Z,100059.70
2023-04-16T12:20:27.824Z,100057.45
2023-04-16T12:21:30.256Z,100059.28
2023-04-16T12:22:36.032Z,100055.92
2023-04-16T12:23:38.245Z,100055.45
2023-04-16T12:24:42.100Z,100054.96
2023-04-16T12:25:44.413Z,100060.41
2023-04-16T12:26:46.848Z,100057.31
2023-04-16T12:27:53.228Z,100056.42
2023-04-16T12:28:53.261Z,100062.80
2023-04-16T12:29:55.641Z,100060.32
2023-04-16T12:30:59.813Z,100056.09
2023-04-16T12:32:02.070Z,100057.54
2023-04-16T12:33:04.495Z,100060.20
2023-04-16T12:34:06.932Z,100061.36
2023-04-16T12:35:09.329Z,100062.75
2023-04-16T12:44:41.684Z,100063.48
2023-04-16T12:45:44.282Z,100071.31
2023-04-16T12:46:51.545Z,100065.42
2023-04-16T12:47:54.072Z,100059.45
2023-04-16T12:48:56.329Z,100065.28
2023-04-16T12:50:00.348Z,100056.23
2023-04-16T12:51:04.308Z,100055.91
2023-04-16T12:52:06.590Z,100063.08
2023-04-16T12:53:10.603Z,100062.48
2023-04-16T12:54:12.922Z,100061.90
2023-04-16T12:55:17.082Z,100063.65
2023-04-16T12:56:20.896Z,100062.02
2023-04-16T12:57:23.179Z,100065.50
2023-04-16T12:58:27.226Z,100061.27
2023-04-16T12:59:29.474Z,100064.17
2023-04-16T13:00:32.000Z,100063.06
2023-04-16T13:01:34.493Z,100058.42
2023-04-16T13:02:36.919Z,100061.49
2023-04-16T13:03:39.458Z,100059.61
2023-04-16T13:04:41.877Z,100060.16
2023-04-16T13:05:45.768Z,100058.88
2023-04-16T13:06:49.657Z,100061.03
2023-04-16T13:07:53.581Z,100048.80
2023-04-16T13:08:57.477Z,100051.50
2023-04-16T13:09:59.807Z,100058.40
2023-04-16T13:11:02.210Z,100057.70
2023-04-16T13:12:06.257Z,100053.81
2023-04-16T13:13:10.190Z,100052.41
2023-04-16T13:14:12.543Z,100053.09
2023-04-16T13:15:14.997Z,100056.27
2023-04-16T13:16:19.273Z,100055.99
2023-04-16T13:17:21.668Z,100050.81
2023-04-16T13:18:24.033Z,100047.79
2023-04-16T13:19:26.490Z,100055.83
2023-04-16T13:20:30.544Z,100055.59
2023-04-16T13:21:34.478Z,100052.59
2023-04-16T13:22:36.864Z,100053.80
2023-04-16T13:23:39.300Z,100051.84
2023-04-16T13:24:41.599Z,100053.98
2023-04-16T13:25:44.068Z,100047.98
2023-04-16T13:26:48.092Z,100053.06
2023-04-16T13:27:52.037Z,100052.68
2023-04-16T13:28:55.938Z,100048.52
2023-04-16T13:29:59.850Z,100053.43
2023-04-16T13:31:04.346Z,100061.20
2023-04-16T13:32:06.301Z,100050.41
2023-04-16T13:33:10.257Z,100053.97
2023-04-16T13:34:12.560Z,100053.86
2023-04-16T13:35:14.963Z,100059.98
2023-04-16T13:36:17.463Z,100058.96
2023-04-16T13:37:21.457Z,100063.17
2023-04-16T13:38:25.373Z,100059.86
2023-04-16T13:39:27.762Z,100056.05
2023-04-16T13:40:30.236Z,100056.86
2023-04-16T13:41:34.238Z,100058.20
2023-04-16T13:42:38.173Z,100054.80
2023-04-16T13:43:40.521Z,100060.41
2023-04-16T13:44:42.979Z,100058.12
2023-04-16T13:45:46.981Z,100060.61
2023-04-16T13:46:50.913Z,100059.77
2023-04-16T13:47:54.859Z,100064.16
2023-04-16T13:48:58.659Z,100062.95
2023-04-16T13:50:02.573Z,100066.66
2023-04-16T13:51:04.971Z,100063.06
2023-04-16T13:52:08.973Z,100059.79
2023-04-16T13:53:11.216Z,100060.56
2023-04-16T13:54:15.321Z,100062.28
2023-04-16T13:55:17.803Z,100058.48
2023-04-16T13:56:20.231Z,100054.81
2023-04-16T13:57:22.680Z,100056.72
2023-04-16T13:58:26.709Z,100053.58
2023-04-16T13:59:30.668Z,100049.02
2023-04-16T14:00:33.202Z,100047.28
2023-04-16T14:01:35.899Z,100049.73
2023-04-16T14:02:40.231Z,100053.81
2023-04-16T14:03:44.277Z,100051.63
2023-04-16T14:04:46.792Z,100046.85
2023-04-16T14:05:50.965Z,100048.38
2023-04-16T14:06:53.480Z,100050.70
2023-04-16T14:07:56.064Z,100054.27
2023-04-16T14:09:00.402Z,100051.71
2023-04-16T14:10:02.819Z,100054.44
2023-04-16T14:11:07.158Z,100054.72
2023-04-16T14:12:11.325Z,100049.61
2023-04-16T14:13:13.846Z,100056.07
2023-04-16T14:14:16.512Z,100054.75
2023-04-16T14:15:20.755Z,100049.54
2023-04-16T14:16:23.367Z,100049.87
2023-04-16T14:17:26.049Z,100054.72
2023-04-16T14:18:30.272Z,100056.56
2023-04-16T14:19:32.863Z,100053.91
2023-04-16T14:20:37.123Z,100055.34
2023-04-16T14:21:41.225Z,100054.41
2023-04-16T14:22:43.817Z,100056.00
2023-04-16T14:23:48.552Z,100056.68
2023-04-16T14:24:51.216Z,100057.61
2023-04-16T14:25:53.815Z,100061.48
2023-04-16T14:26:56.447Z,100055.77
2023-04-16T14:27:59.173Z,100059.73
2023-04-16T14:29:01.715Z,100056.47
2023-04-16T14:30:04.402Z,100059.31
2023-04-16T14:31:07.071Z,100058.53
2023-04-16T14:32:09.835Z,100057.47
2023-04-16T14:33:13.923Z,100061.75
2023-04-16T14:34:16.390Z,100060.34
2023-04-16T14:35:19.041Z,100061.13
2023-04-16T14:36:23.339Z,100053.34
2023-04-16T14:37:25.886Z,100058.59
2023-04-16T14:38:28.680Z,100054.80
2023-04-16T14:39:31.321Z,100055.75
2023-04-16T14:40:34.010Z,100053.16
2023-04-16T14:41:36.712Z,100053.95
2023-04-16T14:42:39.383Z,100049.44
2023-04-16T14:43:42.032Z,100052.81
2023-04-16T14:44:44.658Z,100059.45
2023-04-16T14:45:47.405Z,100049.55
2023-04-16T14:46:51.615Z,100054.36
2023-04-16T14:47:55.883Z,100047.61
2023-04-16T14:48:58.314Z,100046.04
2023-04-16T14:50:01.020Z,100043.48
2023-04-16T14:51:05.207Z,100048.14
2023-04-16T14:52:09.329Z,100050.25
2023-04-16T14:53:11.935Z,100053.43
2023-04-16T14:54:14.499Z,100052.74
2023-04-16T14:55:18.741Z,100046.80
2023-04-16T14:56:22.951Z,100054.05
2023-04-16T14:57:26.968Z,100050.77
2023-04-16T14:58:31.060Z,100049.03
2023-04-16T14:59:35.449Z,100046.34
2023-04-16T15:00:38.084Z,100050.67
2023-04-16T15:01:40.692Z,100052.42
2023-04-16T15:02:44.952Z,100056.52
2023-04-16T15:03:47.595Z,100054.41
2023-04-16T15:04:51.773Z,100054.75
2023-04-16T15:05:54.300Z,100052.67
2023-04-16T15:06:56.966Z,100049.48
2023-04-16T15:07:59.641Z,100048.08
2023-04-16T15:09:02.286Z,100053.71
2023-04-16T15:10:04.931Z,100050.91
2023-04-16T15:11:07.569Z,100052.11
2023-04-16T15:12:11.837Z,100049.25
2023-04-16T15:13:14.467Z,100052.26
2023-04-16T15:14:17.186Z,100054.30
2023-04-16T15:15:21.382Z,100052.30
2023-04-16T15:16:25.557Z,100053.52
2023-04-16T15:17:29.597Z,100054.52
2023-04-16T15:18:32.129Z,100054.09
2023-04-16T15:19:36.425Z,100052.97
2023-04-16T15:20:40.613Z,100056.11
2023-04-16T15:21:43.203Z,100052.48
2023-04-16T15:22:47.384Z,100052.88
2023-04-16T15:23:50.141Z,100055.67
2023-04-16T15:24:52.714Z,100050.97
2023-04-16T15:25:56.899Z,100054.93
2023-04-16T15:26:59.360Z,100049.47
2023-04-16T15:28:02.008Z,100057.06
2023-04-16T15:29:06.241Z,100055.33
2023-04-16T15:30:10.338Z,100053.05
2023-04-16T15:31:12.899Z,100054.59
2023-04-16T15:32:15.503Z,100054.40
2023-04-16T15:33:18.164Z,100055.27
2023-04-16T15:34:22.490Z,100051.52
2023-04-16T15:35:25.019Z,100051.77
2023-04-16T15:36:27.548Z,100051.94
2023-04-16T15:37:31.837Z,100054.82
2023-04-16T15:38:34.378Z,100059.53
2023-04-16T15:39:38.620Z,100055.33
2023-04-16T15:40:41.124Z,100061.44
2023-04-16T15:41:57.316Z,100064.92
2023-04-16T15:42:48.051Z,100059.36
2023-04-16T15:43:52.218Z,100054.48
2023-04-16T15:44:56.174Z,100063.95
2023-04-16T15:46:00.277Z,100062.70
2023-04-16T15:47:02.722Z,100063.27
2023-04-16T15:48:05.437Z,100062.55
2023-04-16T15:49:09.844Z,100064.70
2023-04-16T15:50:12.305Z,100068.57
2023-04-16T15:51:14.981Z,100068.79
2023-04-16T15:52:17.596Z,100067.12
2023-04-16T15:53:20.244Z,100063.83
2023-04-16T15:54:24.489Z,100066.30
2023-04-16T15:55:26.944Z,100067.89
2023-04-16T15:56:29.504Z,100068.25
2023-04-16T15:57:32.077Z,100066.61
2023-04-16T15:58:36.365Z,100063.58
2023-04-16T15:59:40.422Z,100061.70
2023-04-16T16:00:43.016Z,100061.02
2023-04-16T16:01:45.660Z,100057.31
2023-04-16T16:02:49.942Z,100061.81
2023-04-16T16:03:52.647Z,100063.88
2023-04-16T16:04:56.678Z,100065.88
2023-04-16T16:05:59.457Z,100061.42
2023-04-16T16:07:01.769Z,100063.13
2023-04-16T16:08:04.363Z,100063.41
2023-04-16T16:09:08.658Z,100067.11
2023-04-16T16:10:12.406Z,100071.58
2023-04-16T16:11:16.360Z,100065.36
2023-04-16T16:12:20.305Z,100064.67
2023-04-16T16:13:22.676Z,100067.09
2023-04-16T16:14:25.124Z,100067.12
2023-04-16T16:15:27.557Z,100068.09
2023-04-16T16:16:30.100Z,100067.27
2023-04-16T16:17:32.605Z,100060.77
2023-04-16T16:18:35.062Z,100067.22
2023-04-16T16:19:37.499Z,100066.64
2023-04-16T16:20:40.019Z,100068.22
2023-04-16T16:21:42.477Z,100067.95
2023-04-16T16:22:44.846Z,100062.83
2023-04-16T16:23:48.422Z,100062.05
2023-04-16T16:24:50.651Z,100064.59
2023-04-16T16:25:54.670Z,100072.06
2023-04-16T16:26:56.988Z,100071.70
2023-04-16T16:27:59.370Z,100073.51
2023-04-16T16:29:01.792Z,100075.91
2023-04-16T16:30:04.306Z,100073.08
2023-04-16T16:31:08.401Z,100075.90
2023-04-16T16:32:10.695Z,100079.81
2023-04-16T16:33:13.123Z,100072.64
2023-04-16T16:34:20.672Z,100078.80
2023-04-16T16:35:18.002Z,100077.69
2023-04-16T16:36:20.428Z,100078.81
2023-04-16T16:37:24.501Z,100078.80
2023-04-16T16:38:28.319Z,100080.59
2023-04-16T16:39:32.184Z,100079.34
2023-04-16T16:40:36.084Z,100080.74
2023-04-16T16:41:40.008Z,100081.58
2023-04-16T16:42:42.382Z,100075.52
2023-04-16T16:43:44.722Z,100080.69
2023-04-16T16:44:47.224Z,100087.95
2023-04-16T16:45:51.207Z,100083.86
2023-04-16T16:46:55.107Z,100077.54
2023-04-16T16:47:59.004Z,100080.23
2023-04-16T16:49:01.322Z,100083.44
2023-04-16T16:50:03.722Z,100082.48
2023-04-16T16:51:07.753Z,100083.13
2023-04-16T16:52:10.049Z,100084.83
2023-04-16T16:53:12.555Z,100079.66
2023-04-16T16:54:15.074Z,100080.25
2023-04-16T16:55:18.748Z,100084.89
2023-04-16T16:56:21.716Z,100078.99
2023-04-16T16:57:24.145Z,100083.98
2023-04-16T16:58:28.216Z,100086.09
2023-04-16T16:59:32.182Z,100090.69
2023-04-16T17:00:34.619Z,100097.41
2023-04-16T17:01:38.645Z,100095.50
2023-04-16T17:02:40.981Z,100092.27
2023-04-16T17:03:43.436Z,100092.13
2023-04-16T17:04:45.745Z,100098.95
2023-04-16T17:05:49.819Z,100095.03
2023-04-16T17:06:52.231Z,100104.67
2023-04-16T17:07:54.581Z,100098.73
2023-04-16T17:08:56.999Z,100102.69
2023-04-16T17:10:02.049Z,100104.48
2023-04-16T17:11:01.799Z,100099.04
2023-04-16T17:12:04.227Z,100107.17
2023-04-16T17:13:06.686Z,100109.87
2023-04-16T17:14:09.110Z,100107.27
2023-04-16T17:15:11.597Z,100112.15
2023-04-16T17:16:14.026Z,100109.39
2023-04-16T17:17:18.071Z,100109.14
2023-04-16T17:18:20.375Z,100110.09
2023-04-16T17:19:24.451Z,100112.78
2023-04-16T17:20:28.332Z,100112.57
2023-04-16T17:21:30.658Z,100116.16
2023-04-16T17:22:33.054Z,100110.00
2023-04-16T17:32:04.448Z,100119.81
2023-04-16T17:33:07.013Z,100128.63
2023-04-16T17:34:09.491Z,100126.06
2023-04-16T17:35:11.916Z,100124.79
2023-04-16T17:36:15.908Z,100127.98
2023-04-16T17:37:18.217Z,100128.23
2023-04-16T17:38:22.272Z,100137.41
2023-04-16T17:39:26.140Z,100134.12
2023-04-16T17:40:28.452Z,100131.70
2023-04-16T17:41:30.911Z,100131.67
2023-04-16T17:42:34.909Z,100133.78
2023-04-16T17:43:38.778Z,100140.22
2023-04-16T17:44:41.066Z,100140.90
2023-04-16T17:45:43.524Z,100141.05
2023-04-16T17:46:46.079Z,100142.20
2023-04-16T17:47:50.242Z,100139.38
2023-04-16T17:48:52.446Z,100148.78
2023-04-16T17:49:54.982Z,100143.44
2023-04-16T17:50:57.400Z,100144.48
2023-04-16T17:51:59.777Z,100147.58
2023-04-16T17:53:02.333Z,100151.25
2023-04-16T17:54:04.747Z,100150.28
2023-04-16T17:55:07.208Z,100154.48
2023-04-16T17:56:11.205Z,100151.69
2023-04-16T17:57:13.578Z,100151.39
2023-04-16T17:58:17.569Z,100150.31
2023-04-16T17:59:21.491Z,100157.25
2023-04-16T18:00:25.359Z,100151.05
2023-04-16T18:01:27.834Z,100153.20
2023-04-16T18:02:30.366Z,100157.95
2023-04-16T18:03:34.420Z,100163.06
2023-04-16T18:04:36.613Z,100158.02
2023-04-16T18:05:40.574Z,100161.58
2023-04-16T18:06:44.438Z,100168.61
2023-04-16T18:07:46.701Z,100165.55
2023-04-16T18:08:50.689Z,100166.14
2023-04-16T18:09:54.713Z,100162.44
2023-04-16T18:10:58.483Z,100167.05
2023-04-16T18:20:29.793Z,100169.37
2023-04-16T18:21:33.712Z,100171.69
2023-04-16T18:31:05.081Z,100177.77
2023-04-16T18:40:40.632Z,100179.32
2023-04-16T18:41:44.691Z,100184.29
2023-04-16T18:51:17.597Z,100185.17
2023-04-16T18:52:19.912Z,100192.45
2023-04-16T18:53:22.371Z,100193.56
2023-04-16T19:02:55.251Z,100193.97
2023-04-16T19:12:29.375Z,100198.27
2023-04-16T19:22:05.092Z,100200.67
2023-04-16T19:31:37.273Z,100205.89
2023-04-16T19:41:11.091Z,100208.30
2023-04-16T19:50:46.879Z,100208.75
2023-04-16T20:00:21.140Z,100208.91
2023-04-16T20:09:53.003Z,100214.97
2023-04-16T20:19:27.897Z,100214.58
2023-04-16T20:29:01.883Z,100218.29
2023-04-16T20:38:35.827Z,100224.50
2023-04-16T20:48:07.995Z,100232.70
2023-04-16T20:57:41.971Z,100228.70
2023-04-16T21:07:16.145Z,100224.88
2023-04-16T21:16:52.222Z,100221.05
2023-04-16T21:26:24.540Z,100222.23
2023-04-16T21:35:59.017Z,100221.44
2023-04-16T21:45:31.820Z,100228.00
2023-04-16T21:55:05.856Z,100224.70
2023-04-16T22:04:39.848Z,100224.67
2023-04-16T22:14:14.068Z,100219.91
2023-04-16T22:23:49.401Z,100217.52
2023-04-16T22:33:24.466Z,100213.92
2023-04-16T22:42:55.884Z,100216.16
2023-04-16T22:52:30.300Z,100214.48
2023-04-16T23:02:04.056Z,100219.32
2023-04-16T23:11:39.609Z,100215.02
2023-04-16T23:21:14.182Z,100220.84
2023-04-16T23:30:45.469Z,100221.52
2023-04-16T23:40:19.603Z,100224.66
2023-04-16T23:49:55.038Z,100221.30
2023-04-16T23:59:28.695Z,100214.66
